Terminal Aerodrome Forecast
Issued by NWS

Home | Current Version | Previous Version | Text Only | Print | Product List | Glossary On
Versions: 1 2 3 4 5 6 7 8 9 10 11 12 13 14 15 16 17
000
FTUS41 KPBZ 010500
TAFZZV
TAF
KZZV 010526Z 0106/0206 18003KT 4SM BR OVC004
     FM010800 18002KT 1SM BR OVC002
     FM011400 20004KT 5SM BR BKN010
     FM011600 23005KT P6SM SCT025
     FM020300 24006KT P6SM VCSH BKN035=

USA.gov is the U.S. government's official web portal to all federal, state and local government web resources and services.